Time;durP1;ratioP1;P1;durP2;ratioP2;P2;SDS_P1;SDS_P2;PMS_P1;PMS_P2;Temp;Humidity;BMP_temperature;BMP_pressure;BME280_temperature;BME280_humidity;BME280_pressure;Samples;Min_cycle;Max_cycle;Signal;HPM_P1;HPM_P2
2022/08/09 00:00:01;;;;;;;21.50;19.50;;;;;;;;;;2124528;27;20640;-68
2022/08/09 00:01:11;;;;;;;21.23;19.43;;;;;;;;;;2125843;27;20419;-68
2022/08/09 00:02:13;;;;;;;21.80;19.67;;;;;;;;;;2133664;27;20836;-68
2022/08/09 00:03:13;;;;;;;21.67;19.73;;;;;;;;;;2133688;27;20417;-68
2022/08/09 00:04:15;;;;;;;21.43;19.73;;;;;;;;;;2124403;27;20425;-68
2022/08/09 00:05:15;;;;;;;21.93;19.73;;;;;;;;;;2124551;27;20558;-68
2022/08/09 00:06:17;;;;;;;21.40;19.50;;;;;;;;;;2124359;27;20438;-68
2022/08/09 00:07:17;;;;;;;21.47;19.57;;;;;;;;;;2124525;27;20231;-68
2022/08/09 00:08:18;;;;;;;21.50;19.30;;;;;;;;;;2124411;27;20437;-69
2022/08/09 00:09:19;;;;;;;28.27;19.63;;;;;;;;;;2115447;28;20204;-67
2022/08/09 00:10:20;;;;;;;21.00;19.20;;;;;;;;;;2124571;27;20475;-69
2022/08/09 00:11:21;;;;;;;21.00;19.20;;;;;;;;;;2133864;27;20270;-69
2022/08/09 00:12:22;;;;;;;21.97;20.07;;;;;;;;;;2133582;27;20428;-68
2022/08/09 00:13:23;;;;;;;21.23;19.37;;;;;;;;;;2124369;27;20227;-68
2022/08/09 00:14:24;;;;;;;21.33;19.50;;;;;;;;;;2114810;28;20948;-69
2022/08/09 00:15:24;;;;;;;21.93;19.77;;;;;;;;;;2115099;28;20224;-68
2022/08/09 00:16:27;;;;;;;25.03;19.70;;;;;;;;;;2124653;27;20900;-68
2022/08/09 00:17:27;;;;;;;21.63;19.63;;;;;;;;;;2123909;27;20204;-68
2022/08/09 00:18:29;;;;;;;22.20;20.00;;;;;;;;;;2124432;27;20434;-68
2022/08/09 00:19:30;;;;;;;21.37;19.57;;;;;;;;;;2124492;27;20275;-68
2022/08/09 00:20:31;;;;;;;21.60;19.70;;;;;;;;;;2124271;27;20442;-68
2022/08/09 00:21:32;;;;;;;22.13;20.00;;;;;;;;;;2115406;28;20209;-68
2022/08/09 00:22:33;;;;;;;22.03;19.83;;;;;;;;;;2124356;27;20471;-68
2022/08/09 00:23:34;;;;;;;22.07;19.80;;;;;;;;;;2124324;27;20232;-68
2022/08/09 00:24:35;;;;;;;22.07;19.87;;;;;;;;;;2115716;28;20481;-68
2022/08/09 00:25:36;;;;;;;21.70;19.80;;;;;;;;;;2124329;27;20200;-67
2022/08/09 00:26:37;;;;;;;22.37;20.20;;;;;;;;;;2133478;27;20423;-68
2022/08/09 00:27:38;;;;;;;22.07;19.83;;;;;;;;;;2124227;27;20196;-68
2022/08/09 00:28:39;;;;;;;22.13;19.53;;;;;;;;;;2124369;27;20422;-69
2022/08/09 00:29:40;;;;;;;21.63;19.50;;;;;;;;;;2123858;27;20295;-68
2022/08/09 00:30:41;;;;;;;21.23;19.33;;;;;;;;;;2124347;27;20414;-68
2022/08/09 00:31:43;;;;;;;22.97;19.80;;;;;;;;;;2133466;27;20649;-68
2022/08/09 00:32:44;;;;;;;22.00;19.83;;;;;;;;;;2133465;27;20452;-68
2022/08/09 00:33:45;;;;;;;21.40;19.50;;;;;;;;;;2124634;27;20536;-69
2022/08/09 00:34:46;;;;;;;21.83;19.83;;;;;;;;;;2124271;27;20421;-69
2022/08/09 00:35:47;;;;;;;20.70;19.10;;;;;;;;;;2133537;27;20296;-68
2022/08/09 00:36:48;;;;;;;21.17;19.37;;;;;;;;;;2133399;27;20433;-69
2022/08/09 00:37:48;;;;;;;21.63;19.67;;;;;;;;;;2133464;27;20274;-69
2022/08/09 00:38:51;;;;;;;21.67;19.53;;;;;;;;;;2124141;27;20438;-68
2022/08/09 00:39:51;;;;;;;21.70;19.53;;;;;;;;;;2115374;27;20304;-68
2022/08/09 00:40:53;;;;;;;21.73;19.63;;;;;;;;;;2124402;27;20421;-68
2022/08/09 00:41:53;;;;;;;22.07;19.57;;;;;;;;;;2124094;27;20573;-69
2022/08/09 00:42:55;;;;;;;21.97;19.97;;;;;;;;;;2124333;27;20426;-69
2022/08/09 00:43:55;;;;;;;21.63;19.73;;;;;;;;;;2124106;27;20283;-68
2022/08/09 00:44:56;;;;;;;21.47;19.67;;;;;;;;;;2124324;27;20433;-68
2022/08/09 00:45:57;;;;;;;21.13;19.33;;;;;;;;;;2123995;27;20220;-68
2022/08/09 00:47:00;;;;;;;21.43;18.93;;;;;;;;;;2124232;27;20432;-68
2022/08/09 00:48:01;;;;;;;21.87;19.73;;;;;;;;;;2123734;27;20258;-68
2022/08/09 00:49:02;;;;;;;21.03;19.10;;;;;;;;;;2123705;27;20434;-68
2022/08/09 00:50:03;;;;;;;21.10;19.20;;;;;;;;;;2124171;27;20200;-68
2022/08/09 00:51:06;;;;;;;20.93;19.23;;;;;;;;;;2133383;27;20937;-69
2022/08/09 00:52:06;;;;;;;21.57;19.60;;;;;;;;;;2133494;27;20262;-68
2022/08/09 00:53:09;;;;;;;21.00;19.20;;;;;;;;;;2133302;27;20424;-68
2022/08/09 00:54:10;;;;;;;22.37;18.87;;;;;;;;;;2133266;27;20665;-68
2022/08/09 00:55:11;;;;;;;20.87;19.00;;;;;;;;;;2133432;27;20765;-68
2022/08/09 00:56:12;;;;;;;21.50;19.70;;;;;;;;;;2133223;27;20275;-68
2022/08/09 00:57:13;;;;;;;23.67;19.90;;;;;;;;;;2133215;27;20416;-67
2022/08/09 00:58:14;;;;;;;27.80;19.23;;;;;;;;;;2124223;27;20227;-69
2022/08/09 00:59:15;;;;;;;21.27;19.47;;;;;;;;;;2115281;28;20952;-68
2022/08/09 01:00:16;;;;;;;20.77;19.07;;;;;;;;;;2124245;27;20207;-68
2022/08/09 01:01:19;;;;;;;21.50;19.37;;;;;;;;;;2133189;27;20432;-68
2022/08/09 01:02:23;;;;;;;21.50;19.40;;;;;;;;;;2133405;27;20637;-68
2022/08/09 01:03:27;;;;;;;21.87;19.80;;;;;;;;;;2133271;27;20425;-68
2022/08/09 01:04:33;;;;;;;21.13;19.37;;;;;;;;;;2133127;27;20771;-68
2022/08/09 01:05:38;;;;;;;21.43;19.53;;;;;;;;;;2133287;27;20446;-67
2022/08/09 01:06:41;;;;;;;21.27;19.10;;;;;;;;;;2133394;27;20456;-68
2022/08/09 01:07:45;;;;;;;20.60;19.00;;;;;;;;;;2123910;27;20481;-68
2022/08/09 01:08:51;;;;;;;20.97;19.17;;;;;;;;;;2115787;28;20530;-68
2022/08/09 01:09:58;;;;;;;21.47;19.40;;;;;;;;;;2124848;27;20403;-69
2022/08/09 01:11:06;;;;;;;21.87;19.80;;;;;;;;;;2123868;27;20499;-68
2022/08/09 01:12:10;;;;;;;22.17;19.97;;;;;;;;;;2116375;27;20962;-68
2022/08/09 01:13:12;;;;;;;21.50;19.37;;;;;;;;;;2124363;27;20470;-68
2022/08/09 01:14:17;;;;;;;21.60;19.33;;;;;;;;;;2133108;27;20425;-68
2022/08/09 01:15:20;;;;;;;21.90;19.73;;;;;;;;;;2133032;27;20888;-69
2022/08/09 01:16:24;;;;;;;20.70;18.97;;;;;;;;;;2133040;27;20452;-69
2022/08/09 01:17:28;;;;;;;21.17;19.17;;;;;;;;;;2123801;27;20441;-68
2022/08/09 01:18:31;;;;;;;20.83;19.23;;;;;;;;;;2115691;27;20519;-68
2022/08/09 01:19:36;;;;;;;21.23;19.37;;;;;;;;;;2123784;27;20955;-68
2022/08/09 01:20:44;;;;;;;21.83;19.70;;;;;;;;;;2124831;27;20402;-68
2022/08/09 01:21:49;;;;;;;21.33;19.53;;;;;;;;;;2133226;27;20453;-68
2022/08/09 01:23:06;;;;;;;22.30;19.97;;;;;;;;;;2133154;27;20771;-68
2022/08/09 01:24:09;;;;;;;22.50;20.13;;;;;;;;;;2133250;27;20436;-68
2022/08/09 01:25:21;;;;;;;21.93;20.03;;;;;;;;;;2133005;27;20964;-68
2022/08/09 01:26:37;;;;;;;22.40;20.20;;;;;;;;;;2123226;27;20545;-68
2022/08/09 01:27:39;;;;;;;21.73;19.80;;;;;;;;;;2126206;27;20429;-68
2022/08/09 01:28:42;;;;;;;22.73;20.40;;;;;;;;;;2133179;27;20425;-68
2022/08/09 01:29:44;;;;;;;22.03;19.90;;;;;;;;;;2132939;27;20921;-67
2022/08/09 01:30:45;;;;;;;22.13;20.03;;;;;;;;;;2132959;27;20424;-69
2022/08/09 01:31:47;;;;;;;21.83;19.77;;;;;;;;;;2133049;27;20413;-68
2022/08/09 01:32:49;;;;;;;21.80;19.73;;;;;;;;;;2123738;27;20233;-68
2022/08/09 01:33:51;;;;;;;22.43;20.20;;;;;;;;;;2123922;27;20512;-68
2022/08/09 01:34:52;;;;;;;22.17;20.03;;;;;;;;;;2132912;27;20429;-67
2022/08/09 01:35:57;;;;;;;21.83;19.73;;;;;;;;;;2123674;27;21018;-68
2022/08/09 01:36:59;;;;;;;21.03;19.20;;;;;;;;;;2123646;27;20866;-69
2022/08/09 01:38:02;;;;;;;21.47;19.30;;;;;;;;;;2114986;28;20430;-68
2022/08/09 01:39:03;;;;;;;21.17;19.10;;;;;;;;;;2124214;27;20425;-68
2022/08/09 01:40:06;;;;;;;21.17;19.27;;;;;;;;;;2132947;27;20432;-68
2022/08/09 01:41:08;;;;;;;21.47;19.63;;;;;;;;;;2123585;27;20224;-68
2022/08/09 01:42:10;;;;;;;21.70;19.80;;;;;;;;;;2123990;27;20426;-69
2022/08/09 01:43:12;;;;;;;21.50;19.60;;;;;;;;;;2132971;27;20417;-68
2022/08/09 01:44:15;;;;;;;21.03;19.23;;;;;;;;;;2132840;27;20420;-68
2022/08/09 01:45:16;;;;;;;21.67;19.47;;;;;;;;;;2123657;27;20453;-68
2022/08/09 01:46:19;;;;;;;21.10;19.30;;;;;;;;;;2115123;28;21027;-68
2022/08/09 01:47:20;;;;;;;21.37;19.47;;;;;;;;;;2123942;27;20429;-69
2022/08/09 01:48:22;;;;;;;22.67;19.47;;;;;;;;;;2123502;27;20483;-68
2022/08/09 01:49:23;;;;;;;21.43;19.33;;;;;;;;;;2123991;27;20271;-68
2022/08/09 01:50:26;;;;;;;22.00;20.10;;;;;;;;;;2132989;27;20433;-68
2022/08/09 01:51:27;;;;;;;21.53;19.73;;;;;;;;;;2132846;27;20485;-69
2022/08/09 01:52:29;;;;;;;21.70;19.60;;;;;;;;;;2132771;27;20409;-68
2022/08/09 01:53:30;;;;;;;21.27;19.27;;;;;;;;;;2123112;27;20442;-68
2022/08/09 01:54:32;;;;;;;21.93;20.00;;;;;;;;;;2123703;27;20426;-68
2022/08/09 01:55:34;;;;;;;21.70;19.73;;;;;;;;;;2133041;27;20216;-68
2022/08/09 01:56:37;;;;;;;21.50;19.63;;;;;;;;;;2122860;27;20479;-68
2022/08/09 01:57:39;;;;;;;21.77;19.60;;;;;;;;;;2123891;27;20457;-68
2022/08/09 01:58:42;;;;;;;21.83;20.00;;;;;;;;;;2132757;27;20420;-68
2022/08/09 01:59:48;;;;;;;22.20;20.20;;;;;;;;;;2123448;27;21034;-69
2022/08/09 02:00:49;;;;;;;21.67;19.97;;;;;;;;;;2123824;27;20908;-67
2022/08/09 02:01:52;;;;;;;21.60;19.63;;;;;;;;;;2133395;27;20440;-69
2022/08/09 02:02:54;;;;;;;21.20;19.37;;;;;;;;;;2132696;27;20412;-68
2022/08/09 02:03:55;;;;;;;22.00;19.93;;;;;;;;;;2132666;27;20515;-69
2022/08/09 02:04:57;;;;;;;21.47;19.67;;;;;;;;;;2133404;27;20895;-68
2022/08/09 02:05:58;;;;;;;21.90;20.10;;;;;;;;;;2132602;27;20509;-68
2022/08/09 02:07:08;;;;;;;21.40;19.50;;;;;;;;;;2133297;27;20420;-68
2022/08/09 02:08:14;;;;;;;22.00;20.00;;;;;;;;;;2132769;27;20401;-68
2022/08/09 02:09:15;;;;;;;21.63;19.83;;;;;;;;;;2132711;27;20421;-69
2022/08/09 02:10:20;;;;;;;21.60;19.70;;;;;;;;;;2133327;27;20417;-69
2022/08/09 02:11:21;;;;;;;21.50;19.60;;;;;;;;;;2132630;27;20320;-68
2022/08/09 02:12:23;;;;;;;21.20;19.27;;;;;;;;;;2132778;27;20420;-68
2022/08/09 02:13:26;;;;;;;22.00;19.77;;;;;;;;;;2132832;27;20226;-68
2022/08/09 02:14:27;;;;;;;21.80;19.67;;;;;;;;;;2132565;27;20421;-68
2022/08/09 02:15:28;;;;;;;20.97;19.27;;;;;;;;;;2132728;27;20484;-68
2022/08/09 02:16:32;;;;;;;21.97;19.63;;;;;;;;;;2132709;27;20474;-69
2022/08/09 02:17:32;;;;;;;20.57;18.63;;;;;;;;;;2132627;27;20218;-68
2022/08/09 02:18:35;;;;;;;21.10;19.30;;;;;;;;;;2132771;27;20417;-68
2022/08/09 02:19:36;;;;;;;21.37;19.47;;;;;;;;;;2123382;27;20200;-69
2022/08/09 02:20:39;;;;;;;21.40;19.30;;;;;;;;;;2123688;27;20457;-68
2022/08/09 02:21:43;;;;;;;21.00;19.10;;;;;;;;;;2132832;27;20187;-69
2022/08/09 02:22:48;;;;;;;21.20;19.30;;;;;;;;;;2132697;27;20464;-68
2022/08/09 02:23:50;;;;;;;21.37;19.57;;;;;;;;;;2123358;27;20525;-68
2022/08/09 02:24:53;;;;;;;21.33;19.23;;;;;;;;;;2123668;27;20430;-68
2022/08/09 02:25:55;;;;;;;21.40;19.40;;;;;;;;;;2132786;27;20468;-68
2022/08/09 02:26:58;;;;;;;21.00;19.03;;;;;;;;;;2123246;27;20841;-68
2022/08/09 02:28:05;;;;;;;21.67;19.33;;;;;;;;;;2123706;27;20421;-68
2022/08/09 02:29:12;;;;;;;20.53;18.67;;;;;;;;;;2132606;27;20863;-69
2022/08/09 02:30:13;;;;;;;24.17;19.50;;;;;;;;;;2122901;27;20545;-68
2022/08/09 02:31:17;;;;;;;21.50;19.23;;;;;;;;;;2123408;27;20410;-67
2022/08/09 02:32:21;;;;;;;20.00;18.40;;;;;;;;;;2132553;27;20424;-68
2022/08/09 02:33:24;;;;;;;21.93;19.97;;;;;;;;;;2132591;27;20409;-68
2022/08/09 02:34:27;;;;;;;20.80;19.10;;;;;;;;;;2132648;27;20425;-69
2022/08/09 02:35:29;;;;;;;20.20;18.57;;;;;;;;;;2132624;27;20425;-69
2022/08/09 02:36:31;;;;;;;20.73;19.03;;;;;;;;;;2132536;27;20465;-68
2022/08/09 02:37:35;;;;;;;21.93;19.63;;;;;;;;;;2122912;27;20441;-67
2022/08/09 02:38:39;;;;;;;21.00;19.20;;;;;;;;;;2123538;27;20422;-68
2022/08/09 02:39:43;;;;;;;21.13;19.03;;;;;;;;;;2132558;27;20938;-69
2022/08/09 02:40:45;;;;;;;21.30;19.20;;;;;;;;;;2123221;28;20513;-68
2022/08/09 02:41:49;;;;;;;22.47;19.77;;;;;;;;;;2123640;27;20414;-68
2022/08/09 02:42:51;;;;;;;21.30;19.40;;;;;;;;;;2132468;27;20432;-68
2022/08/09 02:43:54;;;;;;;21.57;19.43;;;;;;;;;;2132461;27;20417;-68
2022/08/09 02:45:00;;;;;;;20.47;18.87;;;;;;;;;;2123231;28;20441;-69
2022/08/09 02:46:03;;;;;;;21.07;18.97;;;;;;;;;;2124243;27;20398;-69
2022/08/09 02:47:06;;;;;;;21.40;19.40;;;;;;;;;;2132492;27;20556;-68
2022/08/09 02:48:09;;;;;;;22.90;19.13;;;;;;;;;;2132593;27;20463;-69
2022/08/09 02:49:11;;;;;;;21.33;19.10;;;;;;;;;;2132476;27;20428;-68
2022/08/09 02:50:14;;;;;;;21.43;19.33;;;;;;;;;;2123198;28;20530;-68
2022/08/09 02:51:16;;;;;;;21.57;19.57;;;;;;;;;;2123887;27;20449;-68
2022/08/09 02:52:18;;;;;;;21.20;19.10;;;;;;;;;;2132680;27;20507;-68
2022/08/09 02:53:22;;;;;;;20.50;18.60;;;;;;;;;;2132713;27;20465;-69
2022/08/09 02:54:23;;;;;;;20.53;18.83;;;;;;;;;;2132638;27;20782;-68
2022/08/09 02:55:26;;;;;;;20.57;18.80;;;;;;;;;;2132453;27;20424;-68
2022/08/09 02:56:27;;;;;;;20.77;19.17;;;;;;;;;;2133001;27;20523;-68
2022/08/09 02:57:29;;;;;;;21.70;19.77;;;;;;;;;;2122905;28;20433;-68
2022/08/09 02:58:31;;;;;;;21.17;19.37;;;;;;;;;;2123836;27;20283;-69
2022/08/09 02:59:33;;;;;;;21.27;19.27;;;;;;;;;;2132368;27;20556;-68
2022/08/09 03:00:35;;;;;;;21.40;19.43;;;;;;;;;;2132468;27;20794;-69
2022/08/09 03:01:38;;;;;;;21.93;19.77;;;;;;;;;;2133040;27;20434;-68
2022/08/09 03:02:39;;;;;;;22.03;19.40;;;;;;;;;;2132428;27;20429;-68
2022/08/09 03:03:41;;;;;;;20.90;19.20;;;;;;;;;;2132971;27;20416;-69
2022/08/09 03:04:42;;;;;;;20.97;18.97;;;;;;;;;;2132497;27;20469;-68
2022/08/09 03:05:43;;;;;;;20.63;18.93;;;;;;;;;;2122526;28;20426;-68
2022/08/09 03:06:44;;;;;;;20.97;19.07;;;;;;;;;;2114941;28;20714;-68
2022/08/09 03:07:47;;;;;;;21.30;19.57;;;;;;;;;;2123399;28;20781;-68
2022/08/09 03:08:48;;;;;;;21.37;19.30;;;;;;;;;;2132547;27;20514;-68
2022/08/09 03:09:50;;;;;;;22.10;19.90;;;;;;;;;;2132674;27;20428;-68
2022/08/09 03:10:51;;;;;;;20.93;19.33;;;;;;;;;;2132365;27;20802;-69
2022/08/09 03:11:54;;;;;;;21.07;19.27;;;;;;;;;;2132344;27;20423;-68
2022/08/09 03:12:56;;;;;;;21.43;19.53;;;;;;;;;;2132329;27;20912;-68
2022/08/09 03:13:56;;;;;;;21.97;19.37;;;;;;;;;;2132585;27;20428;-69
2022/08/09 03:14:58;;;;;;;22.07;20.07;;;;;;;;;;2132418;27;20509;-68
2022/08/09 03:16:01;;;;;;;21.03;19.13;;;;;;;;;;2123152;28;20227;-68
2022/08/09 03:17:02;;;;;;;20.90;19.00;;;;;;;;;;2123700;27;20414;-68
2022/08/09 03:18:03;;;;;;;20.50;18.90;;;;;;;;;;2123109;28;20441;-68
2022/08/09 03:19:05;;;;;;;21.27;19.00;;;;;;;;;;2123193;28;20474;-68
2022/08/09 03:20:06;;;;;;;20.67;19.03;;;;;;;;;;2132473;27;20188;-68
2022/08/09 03:21:09;;;;;;;20.67;18.90;;;;;;;;;;2132541;27;20915;-68
2022/08/09 03:22:09;;;;;;;20.63;18.70;;;;;;;;;;2132461;27;20460;-68
2022/08/09 03:23:11;;;;;;;20.47;18.60;;;;;;;;;;2122700;28;20429;-68
2022/08/09 03:24:11;;;;;;;21.20;18.87;;;;;;;;;;2123315;27;20267;-68
2022/08/09 03:25:13;;;;;;;20.43;18.50;;;;;;;;;;2132286;27;20420;-68
2022/08/09 03:26:14;;;;;;;20.23;18.60;;;;;;;;;;2132443;27;20274;-68
2022/08/09 03:27:16;;;;;;;20.13;18.37;;;;;;;;;;2132299;27;20464;-68
2022/08/09 03:28:17;;;;;;;20.40;18.70;;;;;;;;;;2132276;27;20281;-67
2022/08/09 03:29:19;;;;;;;19.97;18.37;;;;;;;;;;2132287;27;20504;-68
2022/08/09 03:30:20;;;;;;;21.07;18.93;;;;;;;;;;2132526;27;20528;-68
2022/08/09 03:31:23;;;;;;;21.07;19.03;;;;;;;;;;2132477;27;20425;-68
2022/08/09 03:32:24;;;;;;;20.37;18.50;;;;;;;;;;2123016;28;20278;-68
2022/08/09 03:33:26;;;;;;;20.70;18.90;;;;;;;;;;2123274;28;20429;-68
2022/08/09 03:34:27;;;;;;;20.77;19.07;;;;;;;;;;2132332;27;20717;-69
2022/08/09 03:35:28;;;;;;;21.80;19.70;;;;;;;;;;2132340;27;20825;-68
2022/08/09 03:36:30;;;;;;;21.87;19.93;;;;;;;;;;2132308;27;20219;-68
2022/08/09 03:37:30;;;;;;;21.33;19.43;;;;;;;;;;2132377;27;20440;-68
2022/08/09 03:38:32;;;;;;;22.20;20.10;;;;;;;;;;2122580;28;20963;-68
2022/08/09 03:39:32;;;;;;;22.23;20.00;;;;;;;;;;2123052;28;20223;-67
2022/08/09 03:40:34;;;;;;;22.90;20.63;;;;;;;;;;2131785;27;20429;-68
2022/08/09 03:41:34;;;;;;;21.53;19.70;;;;;;;;;;2132322;27;20272;-67
2022/08/09 03:42:35;;;;;;;25.83;20.30;;;;;;;;;;2122952;28;20437;-68
2022/08/09 03:43:36;;;;;;;21.77;19.97;;;;;;;;;;2123105;28;20271;-67
2022/08/09 03:44:38;;;;;;;22.13;20.23;;;;;;;;;;2132412;27;20425;-68
2022/08/09 03:45:38;;;;;;;22.83;20.83;;;;;;;;;;2132161;27;20227;-67
2022/08/09 03:46:41;;;;;;;23.60;21.03;;;;;;;;;;2132349;27;20428;-67
2022/08/09 03:47:41;;;;;;;22.57;20.57;;;;;;;;;;2122999;28;20624;-68
2022/08/09 03:48:44;;;;;;;23.53;20.77;;;;;;;;;;2123093;28;20449;-68
2022/08/09 03:49:46;;;;;;;22.37;20.40;;;;;;;;;;2133633;27;20278;-68
2022/08/09 03:50:47;;;;;;;22.77;20.97;;;;;;;;;;2133691;27;20515;-68
2022/08/09 03:51:50;;;;;;;22.77;20.37;;;;;;;;;;2133719;27;20424;-67
2022/08/09 03:52:51;;;;;;;21.00;19.27;;;;;;;;;;2133706;27;20508;-68
2022/08/09 03:53:53;;;;;;;21.23;19.40;;;;;;;;;;2124000;27;20433;-68
2022/08/09 03:54:55;;;;;;;21.30;19.50;;;;;;;;;;2124543;27;20437;-68
2022/08/09 03:55:56;;;;;;;21.17;19.37;;;;;;;;;;2133665;27;20963;-68
2022/08/09 03:56:58;;;;;;;21.07;19.13;;;;;;;;;;2133762;27;20473;-69
2022/08/09 03:57:59;;;;;;;20.83;19.17;;;;;;;;;;2123967;27;20436;-69
2022/08/09 03:58:59;;;;;;;21.40;19.40;;;;;;;;;;2116013;28;20455;-69
2022/08/09 04:00:01;;;;;;;21.57;19.37;;;;;;;;;;2124352;27;20446;-68
2022/08/09 04:01:12;;;;;;;20.80;19.03;;;;;;;;;;2133741;27;20191;-68
2022/08/09 04:02:15;;;;;;;20.73;18.93;;;;;;;;;;2133610;27;20516;-68
2022/08/09 04:03:16;;;;;;;21.47;19.40;;;;;;;;;;2124346;27;20665;-68
2022/08/09 04:04:17;;;;;;;21.10;19.10;;;;;;;;;;2124478;27;20422;-68
2022/08/09 04:05:19;;;;;;;20.67;18.97;;;;;;;;;;2133741;27;20266;-68
2022/08/09 04:06:21;;;;;;;20.40;18.73;;;;;;;;;;2124465;27;20521;-68
2022/08/09 04:07:21;;;;;;;20.30;18.47;;;;;;;;;;2124535;27;20504;-68
2022/08/09 04:08:23;;;;;;;21.40;19.20;;;;;;;;;;2124324;27;20441;-68
2022/08/09 04:09:23;;;;;;;20.50;18.70;;;;;;;;;;2115880;28;20197;-68
2022/08/09 04:10:25;;;;;;;21.47;19.40;;;;;;;;;;2124462;27;20421;-69
2022/08/09 04:11:27;;;;;;;20.13;18.00;;;;;;;;;;2133805;27;20191;-69
2022/08/09 04:12:36;;;;;;;19.40;17.83;;;;;;;;;;2133697;27;20419;-70
2022/08/09 04:13:37;;;;;;;20.20;18.27;;;;;;;;;;2133658;27;20408;-69
2022/08/09 04:14:38;;;;;;;20.67;18.80;;;;;;;;;;2133531;27;20507;-69
2022/08/09 04:15:43;;;;;;;20.43;18.67;;;;;;;;;;2133508;27;20423;-70
2022/08/09 04:16:43;;;;;;;20.30;18.60;;;;;;;;;;2124178;27;20204;-71
2022/08/09 04:17:46;;;;;;;20.20;18.53;;;;;;;;;;2124359;27;20418;-70
2022/08/09 04:18:47;;;;;;;20.80;18.80;;;;;;;;;;2124267;27;20617;-71
2022/08/09 04:19:48;;;;;;;22.53;19.30;;;;;;;;;;2124418;27;20422;-69
2022/08/09 04:20:49;;;;;;;20.80;19.10;;;;;;;;;;2124269;27;20192;-69
2022/08/09 04:21:50;;;;;;;21.63;19.67;;;;;;;;;;2124410;27;20500;-69
2022/08/09 04:22:50;;;;;;;20.80;18.87;;;;;;;;;;2133477;27;20196;-70
2022/08/09 04:23:52;;;;;;;20.60;18.60;;;;;;;;;;2133469;27;20421;-69
2022/08/09 04:24:53;;;;;;;26.73;18.70;;;;;;;;;;2124164;27;20227;-69
2022/08/09 04:25:55;;;;;;;20.53;18.67;;;;;;;;;;2124380;27;20429;-69
2022/08/09 04:26:55;;;;;;;20.43;18.63;;;;;;;;;;2133302;27;20938;-69
2022/08/09 04:27:56;;;;;;;21.40;19.27;;;;;;;;;;2133508;27;20778;-69
2022/08/09 04:28:57;;;;;;;21.40;19.37;;;;;;;;;;2124131;27;20658;-70
2022/08/09 04:29:58;;;;;;;21.43;19.57;;;;;;;;;;2124259;27;20830;-70
2022/08/09 04:30:59;;;;;;;22.40;20.40;;;;;;;;;;2124135;27;20293;-68
2022/08/09 04:32:00;;;;;;;23.33;20.53;;;;;;;;;;2124217;27;20410;-68
2022/08/09 04:33:02;;;;;;;21.57;19.67;;;;;;;;;;2133484;27;20176;-69
2022/08/09 04:34:03;;;;;;;21.87;19.87;;;;;;;;;;2133676;27;20413;-69
2022/08/09 04:35:04;;;;;;;23.20;20.00;;;;;;;;;;2124363;27;20496;-68
2022/08/09 04:36:06;;;;;;;21.17;19.33;;;;;;;;;;2124413;27;20794;-68
2022/08/09 04:37:06;;;;;;;21.27;19.23;;;;;;;;;;2124183;27;20906;-69
2022/08/09 04:38:08;;;;;;;21.73;19.50;;;;;;;;;;2124401;27;20426;-69
2022/08/09 04:39:08;;;;;;;21.43;19.73;;;;;;;;;;2133547;27;20270;-69
2022/08/09 04:40:10;;;;;;;21.70;19.73;;;;;;;;;;2133435;27;20413;-68
2022/08/09 04:41:10;;;;;;;21.67;19.77;;;;;;;;;;2133586;27;20737;-70
2022/08/09 04:42:12;;;;;;;22.23;19.83;;;;;;;;;;2124195;27;20883;-70
2022/08/09 04:43:13;;;;;;;20.93;19.20;;;;;;;;;;2123807;27;20274;-69
2022/08/09 04:44:15;;;;;;;21.63;19.47;;;;;;;;;;2124118;27;20430;-69
2022/08/09 04:45:15;;;;;;;20.97;19.03;;;;;;;;;;2124063;27;20231;-68
2022/08/09 04:46:16;;;;;;;19.93;18.43;;;;;;;;;;2123663;27;20441;-69
2022/08/09 04:47:17;;;;;;;20.17;18.57;;;;;;;;;;2124018;27;20686;-69
2022/08/09 04:48:20;;;;;;;20.90;19.00;;;;;;;;;;2132861;27;20421;-69
2022/08/09 04:49:20;;;;;;;20.17;18.30;;;;;;;;;;2133472;27;20187;-68
2022/08/09 04:50:21;;;;;;;20.60;18.50;;;;;;;;;;2133377;27;20420;-69
2022/08/09 04:51:25;;;;;;;20.70;18.60;;;;;;;;;;2133260;27;20547;-69
2022/08/09 04:52:27;;;;;;;20.50;18.17;;;;;;;;;;2133432;27;20457;-68
2022/08/09 04:53:27;;;;;;;19.37;17.83;;;;;;;;;;2133218;27;20183;-69
2022/08/09 04:54:29;;;;;;;19.77;17.97;;;;;;;;;;2133278;27;20427;-69
2022/08/09 04:55:29;;;;;;;19.80;18.20;;;;;;;;;;2133411;27;20195;-68
2022/08/09 04:56:31;;;;;;;19.50;18.00;;;;;;;;;;2124002;27;20465;-69
2022/08/09 04:57:32;;;;;;;20.30;18.60;;;;;;;;;;2124054;27;20677;-70
2022/08/09 04:58:33;;;;;;;21.40;19.40;;;;;;;;;;2124156;27;20485;-67
2022/08/09 04:59:34;;;;;;;20.87;19.00;;;;;;;;;;2123968;27;20453;-71
2022/08/09 05:00:34;;;;;;;20.07;18.57;;;;;;;;;;2132838;27;20206;-67
2022/08/09 05:01:36;;;;;;;20.30;18.63;;;;;;;;;;2132978;27;20520;-68
2022/08/09 05:02:36;;;;;;;20.73;18.70;;;;;;;;;;2133156;27;20222;-69
2022/08/09 05:03:39;;;;;;;20.47;18.80;;;;;;;;;;2133158;27;20461;-68
2022/08/09 05:04:39;;;;;;;20.37;18.50;;;;;;;;;;2133385;27;20188;-69
2022/08/09 05:05:41;;;;;;;20.40;18.80;;;;;;;;;;2133259;27;20473;-68
2022/08/09 05:06:41;;;;;;;20.23;18.47;;;;;;;;;;2123999;27;20245;-69
2022/08/09 05:07:43;;;;;;;20.10;18.40;;;;;;;;;;2115334;28;20470;-69
2022/08/09 05:08:43;;;;;;;22.30;19.17;;;;;;;;;;2124024;27;20258;-70
2022/08/09 05:09:44;;;;;;;20.33;18.73;;;;;;;;;;2133132;27;20417;-70
2022/08/09 05:10:45;;;;;;;20.63;18.90;;;;;;;;;;2123838;27;20220;-69
2022/08/09 05:11:46;;;;;;;20.37;18.80;;;;;;;;;;2124085;27;20414;-69
2022/08/09 05:12:47;;;;;;;20.27;18.57;;;;;;;;;;2133098;27;20278;-69
2022/08/09 05:13:48;;;;;;;21.63;18.30;;;;;;;;;;2123805;27;20429;-69
2022/08/09 05:14:48;;;;;;;20.17;18.50;;;;;;;;;;2123890;27;20792;-68
2022/08/09 05:15:50;;;;;;;21.43;19.20;;;;;;;;;;2123898;27;20841;-70
2022/08/09 05:16:51;;;;;;;20.67;18.83;;;;;;;;;;2115373;28;20201;-69
2022/08/09 05:17:52;;;;;;;20.07;18.57;;;;;;;;;;2124042;27;20410;-69
2022/08/09 05:18:54;;;;;;;20.17;18.37;;;;;;;;;;2133116;27;20456;-68
2022/08/09 05:19:55;;;;;;;20.63;18.93;;;;;;;;;;2133234;27;20474;-69
2022/08/09 05:20:56;;;;;;;20.23;18.53;;;;;;;;;;2133042;27;20457;-69
2022/08/09 05:21:57;;;;;;;20.07;18.47;;;;;;;;;;2132977;27;20933;-69
2022/08/09 05:22:58;;;;;;;20.53;18.60;;;;;;;;;;2133099;27;20215;-70
2022/08/09 05:23:59;;;;;;;20.67;18.93;;;;;;;;;;2133240;27;20421;-69
2022/08/09 05:25:00;;;;;;;20.60;18.53;;;;;;;;;;2123843;27;20200;-70
2022/08/09 05:26:01;;;;;;;21.27;19.20;;;;;;;;;;2123815;27;20422;-68
2022/08/09 05:27:03;;;;;;;21.20;19.27;;;;;;;;;;2123750;27;20252;-68
2022/08/09 05:28:03;;;;;;;20.53;18.80;;;;;;;;;;2123907;27;20541;-68
2022/08/09 05:29:05;;;;;;;20.90;19.20;;;;;;;;;;2132931;27;20927;-68
2022/08/09 05:30:06;;;;;;;21.63;19.73;;;;;;;;;;2132932;27;20266;-68
2022/08/09 05:31:07;;;;;;;21.70;19.70;;;;;;;;;;2123643;27;20430;-67
2022/08/09 05:32:07;;;;;;;22.83;19.70;;;;;;;;;;2123840;27;20781;-70
2022/08/09 05:33:09;;;;;;;21.33;19.50;;;;;;;;;;2132962;27;20477;-70
2022/08/09 05:34:11;;;;;;;21.23;19.33;;;;;;;;;;2133028;27;20717;-70
2022/08/09 05:35:12;;;;;;;21.03;19.20;;;;;;;;;;2132845;27;20500;-69
2022/08/09 05:36:12;;;;;;;21.53;19.63;;;;;;;;;;2132935;27;20444;-70
2022/08/09 05:37:14;;;;;;;20.53;18.93;;;;;;;;;;2132957;27;20423;-69
2022/08/09 05:38:14;;;;;;;21.50;19.50;;;;;;;;;;2132943;27;20278;-69
2022/08/09 05:39:16;;;;;;;21.40;19.10;;;;;;;;;;2133087;27;20417;-69
2022/08/09 05:40:16;;;;;;;20.67;18.90;;;;;;;;;;2132790;27;20219;-70
2022/08/09 05:41:18;;;;;;;20.60;18.87;;;;;;;;;;2132896;27;20421;-70
2022/08/09 05:42:18;;;;;;;20.87;18.97;;;;;;;;;;2132944;27;20184;-69
2022/08/09 05:43:20;;;;;;;21.00;19.00;;;;;;;;;;2132936;27;20435;-70
2022/08/09 05:44:20;;;;;;;20.03;18.37;;;;;;;;;;2123568;27;20283;-69
2022/08/09 05:45:23;;;;;;;20.13;18.53;;;;;;;;;;2123711;27;20418;-69
2022/08/09 05:46:23;;;;;;;20.50;18.60;;;;;;;;;;2132843;27;20191;-72
2022/08/09 05:47:25;;;;;;;21.57;19.63;;;;;;;;;;2123485;27;20425;-76
2022/08/09 05:48:26;;;;;;;20.50;18.80;;;;;;;;;;2123577;27;20243;-73
2022/08/09 05:49:28;;;;;;;26.13;19.37;;;;;;;;;;2132785;27;20461;-74
2022/08/09 05:50:30;;;;;;;20.27;18.67;;;;;;;;;;2132850;27;20425;-71
2022/08/09 05:51:30;;;;;;;20.73;18.83;;;;;;;;;;2123556;27;20453;-71
2022/08/09 05:52:31;;;;;;;21.17;18.97;;;;;;;;;;2115044;28;20449;-71
2022/08/09 05:53:32;;;;;;;23.90;19.47;;;;;;;;;;2123921;27;20192;-70
2022/08/09 05:54:33;;;;;;;21.87;19.53;;;;;;;;;;2123475;27;20483;-72
2022/08/09 05:55:34;;;;;;;21.40;19.30;;;;;;;;;;2114947;28;20291;-72
2022/08/09 05:56:35;;;;;;;21.60;19.43;;;;;;;;;;2123606;27;20429;-72
2022/08/09 05:57:36;;;;;;;21.00;18.93;;;;;;;;;;2132689;27;20256;-71
2022/08/09 05:58:37;;;;;;;22.00;18.90;;;;;;;;;;2132820;27;20421;-72
2022/08/09 05:59:37;;;;;;;21.27;19.17;;;;;;;;;;2132597;27;20654;-72